Time;durP1;ratioP1;P1;durP2;ratioP2;P2;SDS_P1;SDS_P2;PMS_P1;PMS_P2;Temp;Humidity;BMP_temperature;BMP_pressure;BME280_temperature;BME280_humidity;BME280_pressure;Samples;Min_cycle;Max_cycle;Signal;HPM_P1;HPM_P2
2022/01/05 00:02:14;;;;;;;9.77;6.22;;;;;;;;;;4961505;28;20051;-76
2022/01/05 00:04:44;;;;;;;10.35;6.30;;;;;;;;;;4940856;29;20052;-79
2022/01/05 00:07:13;;;;;;;11.27;6.38;;;;;;;;;;4958559;29;20386;-80
2022/01/05 00:09:40;;;;;;;8.98;5.63;;;;;;;;;;4958334;29;20047;-79
2022/01/05 00:12:08;;;;;;;8.57;5.00;;;;;;;;;;4957913;29;20042;-80
2022/01/05 00:14:43;;;;;;;8.60;5.10;;;;;;;;;;4940835;29;20044;-81
2022/01/05 00:17:10;;;;;;;6.07;4.35;;;;;;;;;;4941082;29;20472;-77
2022/01/05 00:19:39;;;;;;;10.25;4.53;;;;;;;;;;4941314;29;20513;-80
2022/01/05 00:22:07;;;;;;;9.35;4.30;;;;;;;;;;4940759;29;20043;-76
2022/01/05 00:24:36;;;;;;;7.28;4.13;;;;;;;;;;4925101;29;20058;-81
2022/01/05 00:27:04;;;;;;;6.10;3.63;;;;;;;;;;4957866;29;20057;-77
2022/01/05 00:29:32;;;;;;;6.38;4.05;;;;;;;;;;4941275;29;20521;-81
2022/01/05 00:32:00;;;;;;;6.88;4.10;;;;;;;;;;4940504;29;20139;-79
2022/01/05 00:34:29;;;;;;;7.03;4.10;;;;;;;;;;4940432;29;20051;-76
2022/01/05 00:37:00;;;;;;;7.97;4.70;;;;;;;;;;4957869;29;20061;-80
2022/01/05 00:39:27;;;;;;;8.07;4.40;;;;;;;;;;4940810;29;20391;-80
2022/01/05 00:41:55;;;;;;;6.63;3.83;;;;;;;;;;4940851;29;20486;-77
2022/01/05 00:44:24;;;;;;;6.95;3.95;;;;;;;;;;4957812;29;20062;-78
2022/01/05 00:46:51;;;;;;;6.85;3.72;;;;;;;;;;4940580;29;20051;-80
2022/01/05 00:49:19;;;;;;;6.75;3.53;;;;;;;;;;4940160;29;20043;-80
2022/01/05 00:51:49;;;;;;;5.43;3.80;;;;;;;;;;4924241;29;20044;-76
2022/01/05 00:54:16;;;;;;;5.00;3.47;;;;;;;;;;4940105;29;20058;-78
2022/01/05 00:56:46;;;;;;;5.82;3.40;;;;;;;;;;4957097;29;20043;-77
2022/01/05 00:59:13;;;;;;;6.35;3.55;;;;;;;;;;4939794;29;20059;-78
2022/01/05 01:01:41;;;;;;;8.10;3.00;;;;;;;;;;4940111;29;20073;-76
2022/01/05 01:04:09;;;;;;;4.90;3.17;;;;;;;;;;4956446;28;20146;-80
2022/01/05 01:06:36;;;;;;;5.82;3.42;;;;;;;;;;4956900;29;20181;-79
2022/01/05 01:09:04;;;;;;;4.57;2.83;;;;;;;;;;4940012;29;20399;-78
2022/01/05 01:11:32;;;;;;;7.32;3.40;;;;;;;;;;4956644;29;20035;-77
2022/01/05 01:13:59;;;;;;;4.20;2.90;;;;;;;;;;4957007;29;20043;-79
2022/01/05 01:16:27;;;;;;;9.10;3.35;;;;;;;;;;4957249;29;20054;-77
2022/01/05 01:18:56;;;;;;;5.72;3.35;;;;;;;;;;4940198;29;20414;-79
2022/01/05 01:21:24;;;;;;;7.00;3.40;;;;;;;;;;4939831;29;20051;-80
2022/01/05 01:23:56;;;;;;;4.72;3.33;;;;;;;;;;4939932;29;20054;-79
2022/01/05 01:26:28;;;;;;;3.85;3.22;;;;;;;;;;4939612;29;20056;-80
2022/01/05 01:28:56;;;;;;;4.05;2.90;;;;;;;;;;4954285;29;20464;-79
2022/01/05 01:31:26;;;;;;;4.85;2.63;;;;;;;;;;4956805;29;20035;-79
2022/01/05 01:33:54;;;;;;;4.22;3.08;;;;;;;;;;4956590;29;20098;-79
2022/01/05 01:36:22;;;;;;;4.40;3.30;;;;;;;;;;4939480;29;20558;-81
2022/01/05 01:38:49;;;;;;;5.53;3.35;;;;;;;;;;4956664;29;20054;-78
2022/01/05 01:41:17;;;;;;;6.25;2.90;;;;;;;;;;4955702;29;20123;-80
2022/01/05 01:43:51;;;;;;;4.70;3.20;;;;;;;;;;4939709;29;20057;-80
2022/01/05 01:46:19;;;;;;;4.95;3.03;;;;;;;;;;4957155;29;20050;-78
2022/01/05 01:48:47;;;;;;;5.57;3.60;;;;;;;;;;4939517;29;20047;-80
2022/01/05 01:51:17;;;;;;;8.77;3.55;;;;;;;;;;4939229;29;20046;-79
2022/01/05 01:53:46;;;;;;;6.88;3.80;;;;;;;;;;4956554;29;20127;-80
2022/01/05 01:56:14;;;;;;;6.25;3.60;;;;;;;;;;4939155;29;20500;-80
2022/01/05 01:58:45;;;;;;;5.95;4.00;;;;;;;;;;4956245;29;20047;-79
2022/01/05 02:01:16;;;;;;;6.45;3.70;;;;;;;;;;4936219;29;20141;-78
2022/01/05 02:03:44;;;;;;;6.78;4.00;;;;;;;;;;4939080;29;20147;-78
2022/01/05 02:06:13;;;;;;;5.78;3.65;;;;;;;;;;4956344;29;20407;-79
2022/01/05 02:08:41;;;;;;;8.30;3.85;;;;;;;;;;4939250;29;20035;-76
2022/01/05 02:11:10;;;;;;;7.35;4.28;;;;;;;;;;4938694;29;20499;-79
2022/01/05 02:13:38;;;;;;;7.47;4.22;;;;;;;;;;4938755;29;20491;-80
2022/01/05 02:16:07;;;;;;;7.57;4.40;;;;;;;;;;4938650;29;20469;-78
2022/01/05 02:21:09;;;;;;;10.73;4.78;;;;;;;;;;4938665;29;20047;-80
2022/01/05 02:23:37;;;;;;;8.40;4.57;;;;;;;;;;4938299;29;20070;-79
2022/01/05 02:26:07;;;;;;;9.05;4.97;;;;;;;;;;4938969;29;20051;-79
2022/01/05 02:28:34;;;;;;;6.53;3.97;;;;;;;;;;4938527;29;20053;-80
2022/01/05 02:31:04;;;;;;;8.75;4.22;;;;;;;;;;4939040;29;20118;-79
2022/01/05 02:33:32;;;;;;;8.25;4.45;;;;;;;;;;4938257;29;20035;-80
2022/01/05 02:36:00;;;;;;;5.47;3.90;;;;;;;;;;4938154;29;20063;-76
2022/01/05 02:38:29;;;;;;;6.72;3.78;;;;;;;;;;4938293;29;20043;-77
2022/01/05 02:40:56;;;;;;;7.22;4.05;;;;;;;;;;4939030;29;20048;-76
2022/01/05 02:43:27;;;;;;;9.57;4.40;;;;;;;;;;4938386;29;20126;-76
2022/01/05 02:45:54;;;;;;;5.38;3.15;;;;;;;;;;4938394;29;20043;-76
2022/01/05 02:48:23;;;;;;;5.65;3.33;;;;;;;;;;4938208;29;20055;-76
2022/01/05 02:50:50;;;;;;;6.57;3.05;;;;;;;;;;4955186;29;20119;-78
2022/01/05 02:53:18;;;;;;;4.22;3.13;;;;;;;;;;4955395;29;20071;-80
2022/01/05 02:55:46;;;;;;;6.22;3.50;;;;;;;;;;4955575;29;20128;-76
2022/01/05 02:58:13;;;;;;;5.30;3.20;;;;;;;;;;4954989;29;20062;-78
2022/01/05 03:00:41;;;;;;;7.68;3.70;;;;;;;;;;4938101;29;20051;-80
2022/01/05 03:03:09;;;;;;;5.53;3.47;;;;;;;;;;4937941;29;20063;-77
2022/01/05 03:05:39;;;;;;;6.13;3.70;;;;;;;;;;4937790;29;20130;-78
2022/01/05 03:08:07;;;;;;;6.40;3.45;;;;;;;;;;4955265;29;20077;-79
2022/01/05 03:10:36;;;;;;;3.42;2.60;;;;;;;;;;4937336;29;20040;-77
2022/01/05 03:13:03;;;;;;;3.95;2.60;;;;;;;;;;4953750;29;20047;-79
2022/01/05 03:15:31;;;;;;;3.78;2.70;;;;;;;;;;4937546;29;20054;-80
2022/01/05 03:18:00;;;;;;;5.43;2.30;;;;;;;;;;4937909;29;20047;-80
2022/01/05 03:20:29;;;;;;;3.65;2.25;;;;;;;;;;4937775;29;20054;-81
2022/01/05 03:23:00;;;;;;;3.72;2.60;;;;;;;;;;4938221;29;20167;-78
2022/01/05 03:25:30;;;;;;;3.45;2.67;;;;;;;;;;4937880;28;20051;-78
2022/01/05 03:27:57;;;;;;;3.63;2.63;;;;;;;;;;4937721;29;20044;-80
2022/01/05 03:30:26;;;;;;;5.15;2.60;;;;;;;;;;4937874;29;20051;-80
2022/01/05 03:35:29;;;;;;;3.45;2.50;;;;;;;;;;4954543;29;20494;-80
2022/01/05 03:37:58;;;;;;;2.88;2.40;;;;;;;;;;4937787;29;20050;-80
2022/01/05 03:40:25;;;;;;;3.08;2.22;;;;;;;;;;4921889;29;20142;-78
2022/01/05 03:42:53;;;;;;;4.57;2.50;;;;;;;;;;4938195;29;20400;-78
2022/01/05 03:45:21;;;;;;;6.70;2.42;;;;;;;;;;4937858;29;20504;-76
2022/01/05 03:47:49;;;;;;;5.53;3.60;;;;;;;;;;4954657;29;20110;-78
2022/01/05 03:50:20;;;;;;;4.28;3.10;;;;;;;;;;4922121;29;20048;-76
2022/01/05 03:52:50;;;;;;;4.47;3.03;;;;;;;;;;4954935;29;20039;-78
2022/01/05 03:55:18;;;;;;;4.43;2.50;;;;;;;;;;4937775;29;20131;-78
2022/01/05 03:57:46;;;;;;;9.73;7.00;;;;;;;;;;4937748;29;20044;-78
2022/01/05 04:00:17;;;;;;;7.88;3.72;;;;;;;;;;4937577;29;20090;-80
2022/01/05 04:02:45;;;;;;;4.88;3.50;;;;;;;;;;4954850;29;20039;-76
2022/01/05 04:05:15;;;;;;;4.38;3.20;;;;;;;;;;4937465;29;20062;-80
2022/01/05 04:07:43;;;;;;;2.95;2.03;;;;;;;;;;4937801;29;20047;-80
2022/01/05 04:10:11;;;;;;;4.95;2.40;;;;;;;;;;4954427;29;20048;-76
2022/01/05 04:12:39;;;;;;;3.95;2.75;;;;;;;;;;4954328;29;20479;-78
2022/01/05 04:15:06;;;;;;;5.00;2.65;;;;;;;;;;4937446;29;20394;-79
2022/01/05 04:17:35;;;;;;;3.08;2.40;;;;;;;;;;4954918;29;20040;-78
2022/01/05 04:20:04;;;;;;;4.70;3.47;;;;;;;;;;4937186;29;20075;-79
2022/01/05 04:22:31;;;;;;;7.63;3.95;;;;;;;;;;4954489;29;20424;-76
2022/01/05 04:24:59;;;;;;;9.15;4.47;;;;;;;;;;4954386;29;20043;-76
2022/01/05 04:27:29;;;;;;;6.70;4.07;;;;;;;;;;4937118;29;20059;-78
2022/01/05 04:29:56;;;;;;;6.78;3.53;;;;;;;;;;4921316;29;20054;-79
2022/01/05 04:32:24;;;;;;;7.05;4.63;;;;;;;;;;4937273;29;20078;-80
2022/01/05 04:35:13;;;;;;;7.78;4.68;;;;;;;;;;4939925;29;20036;-79
2022/01/05 04:37:56;;;;;;;6.68;4.05;;;;;;;;;;4939817;29;20525;-78
2022/01/05 04:40:25;;;;;;;6.65;4.57;;;;;;;;;;4957935;29;20483;-78
2022/01/05 04:42:53;;;;;;;7.78;4.05;;;;;;;;;;4957582;29;20119;-80
2022/01/05 04:45:23;;;;;;;7.25;4.10;;;;;;;;;;4957644;29;20069;-78
2022/01/05 04:47:52;;;;;;;5.10;3.42;;;;;;;;;;4957529;29;20109;-80
2022/01/05 04:50:20;;;;;;;5.65;3.33;;;;;;;;;;4940530;29;20048;-76
2022/01/05 04:52:47;;;;;;;6.10;3.70;;;;;;;;;;4957343;29;20109;-76
2022/01/05 04:55:15;;;;;;;5.75;3.45;;;;;;;;;;4940447;29;20039;-76
2022/01/05 04:57:46;;;;;;;7.75;4.85;;;;;;;;;;4957415;29;20134;-80
2022/01/05 05:00:14;;;;;;;7.25;4.15;;;;;;;;;;4940031;29;20058;-76
2022/01/05 05:02:41;;;;;;;6.95;3.80;;;;;;;;;;4940553;29;20050;-78
2022/01/05 05:05:10;;;;;;;7.22;3.80;;;;;;;;;;4956912;29;20078;-78
2022/01/05 05:07:38;;;;;;;12.52;8.00;;;;;;;;;;4939882;29;20460;-76
2022/01/05 05:10:09;;;;;;;10.38;5.35;;;;;;;;;;4957176;29;20043;-78
2022/01/05 05:12:36;;;;;;;7.57;4.35;;;;;;;;;;4939666;29;20061;-78
2022/01/05 05:15:06;;;;;;;7.70;4.28;;;;;;;;;;4940010;29;20552;-79
2022/01/05 05:17:34;;;;;;;8.93;4.63;;;;;;;;;;4939569;29;20042;-76
2022/01/05 05:20:04;;;;;;;8.93;4.80;;;;;;;;;;4956912;29;20122;-80
2022/01/05 05:22:33;;;;;;;7.50;4.78;;;;;;;;;;4939484;29;20503;-80
2022/01/05 05:25:02;;;;;;;9.20;4.70;;;;;;;;;;4939731;29;20091;-79
2022/01/05 05:27:30;;;;;;;7.97;4.38;;;;;;;;;;4939097;29;20055;-78
2022/01/05 05:29:58;;;;;;;4.97;3.03;;;;;;;;;;4956702;29;20129;-76
2022/01/05 05:32:26;;;;;;;10.05;5.95;;;;;;;;;;4956723;29;20043;-80
2022/01/05 05:34:53;;;;;;;4.50;3.65;;;;;;;;;;4956921;29;20081;-76
2022/01/05 05:37:22;;;;;;;5.43;3.20;;;;;;;;;;4939391;29;20051;-80
2022/01/05 05:39:49;;;;;;;4.85;3.13;;;;;;;;;;4939209;29;20051;-79
2022/01/05 05:42:17;;;;;;;4.80;3.13;;;;;;;;;;4956879;29;20082;-78
2022/01/05 05:44:46;;;;;;;4.30;2.53;;;;;;;;;;4956601;29;20043;-78
2022/01/05 05:47:14;;;;;;;5.05;2.45;;;;;;;;;;4939352;29;20055;-77
2022/01/05 05:49:45;;;;;;;4.00;2.50;;;;;;;;;;4938912;29;20043;-76
2022/01/05 05:52:13;;;;;;;6.20;3.03;;;;;;;;;;4939049;29;20087;-78
2022/01/05 05:54:41;;;;;;;4.75;3.17;;;;;;;;;;4956771;29;20434;-76
2022/01/05 05:57:26;;;;;;;5.93;3.67;;;;;;;;;;4939159;29;20051;-79
2022/01/05 05:59:54;;;;;;;9.40;4.35;;;;;;;;;;4956209;29;20047;-77
2022/01/05 06:02:27;;;;;;;7.38;3.90;;;;;;;;;;4956281;29;20466;-76
2022/01/05 06:04:55;;;;;;;5.75;3.65;;;;;;;;;;4939261;29;20057;-78
2022/01/05 06:07:22;;;;;;;4.30;2.78;;;;;;;;;;4956399;29;20050;-77
2022/01/05 06:09:51;;;;;;;2.75;2.10;;;;;;;;;;4938818;29;20078;-78
2022/01/05 06:12:18;;;;;;;2.58;2.05;;;;;;;;;;4955918;29;20054;-78
2022/01/05 06:14:46;;;;;;;4.07;2.47;;;;;;;;;;4956322;29;20134;-78
2022/01/05 06:17:14;;;;;;;3.17;2.03;;;;;;;;;;4922942;29;20043;-78
2022/01/05 06:19:44;;;;;;;2.90;2.20;;;;;;;;;;4955894;29;20046;-83
2022/01/05 06:22:11;;;;;;;4.28;2.80;;;;;;;;;;4938557;29;20046;-78
2022/01/05 06:24:40;;;;;;;4.32;2.33;;;;;;;;;;4938043;29;20051;-78
2022/01/05 06:27:09;;;;;;;5.32;3.40;;;;;;;;;;4920766;29;20079;-77
2022/01/05 06:29:38;;;;;;;6.05;3.53;;;;;;;;;;4915986;29;20058;-75
2022/01/05 06:32:06;;;;;;;7.93;4.15;;;;;;;;;;4916529;29;20037;-77
2022/01/05 06:34:34;;;;;;;9.45;4.72;;;;;;;;;;4900780;29;20055;-75
2022/01/05 06:37:02;;;;;;;9.50;5.28;;;;;;;;;;4926375;29;20044;-81
2022/01/05 06:39:30;;;;;;;10.80;6.65;;;;;;;;;;4935745;29;20116;-75
2022/01/05 06:41:59;;;;;;;12.50;6.30;;;;;;;;;;4935236;29;20535;-81
2022/01/05 06:44:26;;;;;;;24.27;12.25;;;;;;;;;;4938402;29;20040;-82
2022/01/05 06:46:57;;;;;;;17.30;8.13;;;;;;;;;;4934911;29;20066;-74
2022/01/05 06:49:24;;;;;;;11.57;6.93;;;;;;;;;;4919958;29;20048;-82
2022/01/05 06:51:52;;;;;;;8.70;4.38;;;;;;;;;;4938267;29;20047;-81
2022/01/05 06:54:21;;;;;;;9.48;4.38;;;;;;;;;;4937075;29;20054;-81
2022/01/05 06:56:48;;;;;;;7.60;4.63;;;;;;;;;;4935433;29;20119;-75
2022/01/05 06:59:16;;;;;;;5.88;3.40;;;;;;;;;;4934221;29;20044;-78
2022/01/05 07:01:44;;;;;;;6.97;3.35;;;;;;;;;;4917567;29;20139;-77
2022/01/05 07:04:12;;;;;;;4.80;3.28;;;;;;;;;;4939184;29;20039;-74
2022/01/05 07:06:40;;;;;;;11.55;4.63;;;;;;;;;;4934981;29;20138;-76
2022/01/05 07:09:09;;;;;;;5.07;3.63;;;;;;;;;;4936713;29;20063;-77
2022/01/05 07:11:38;;;;;;;6.65;4.32;;;;;;;;;;4934276;29;20039;-75
2022/01/05 07:14:06;;;;;;;8.95;4.90;;;;;;;;;;4934725;29;20488;-78
2022/01/05 07:16:33;;;;;;;7.22;3.85;;;;;;;;;;4934709;29;20042;-78
2022/01/05 07:19:01;;;;;;;6.07;3.85;;;;;;;;;;4936326;29;20498;-82
2022/01/05 07:21:33;;;;;;;9.10;3.78;;;;;;;;;;4934205;29;20062;-83
2022/01/05 07:24:03;;;;;;;13.88;3.95;;;;;;;;;;4934164;29;20400;-75
2022/01/05 07:26:31;;;;;;;5.70;3.35;;;;;;;;;;4954625;28;20529;-77
2022/01/05 07:28:59;;;;;;;5.32;3.72;;;;;;;;;;4975254;28;20102;-74
2022/01/05 07:31:30;;;;;;;10.48;4.40;;;;;;;;;;4956749;28;20035;-76
2022/01/05 07:33:58;;;;;;;8.02;4.47;;;;;;;;;;4974742;28;20049;-82
2022/01/05 07:36:25;;;;;;;7.82;4.30;;;;;;;;;;4969960;28;20031;-74
2022/01/05 07:38:52;;;;;;;10.32;5.13;;;;;;;;;;4955082;29;20122;-76
2022/01/05 07:41:20;;;;;;;22.65;7.63;;;;;;;;;;4939560;29;20047;-82
2022/01/05 07:43:48;;;;;;;14.00;7.50;;;;;;;;;;4957473;29;20075;-77
2022/01/05 07:46:16;;;;;;;12.85;7.30;;;;;;;;;;4947809;28;20050;-77
2022/01/05 07:48:43;;;;;;;10.93;5.78;;;;;;;;;;4956364;28;20079;-77
2022/01/05 07:51:11;;;;;;;13.73;6.35;;;;;;;;;;4971012;28;20035;-76
2022/01/05 07:53:40;;;;;;;16.92;6.68;;;;;;;;;;4949605;28;20039;-83
2022/01/05 07:56:08;;;;;;;12.70;6.38;;;;;;;;;;4950714;28;20070;-77
2022/01/05 07:58:36;;;;;;;19.77;7.60;;;;;;;;;;4952154;29;20464;-83
2022/01/05 08:01:04;;;;;;;11.23;6.43;;;;;;;;;;4938606;29;20145;-76
2022/01/05 08:03:33;;;;;;;17.98;7.18;;;;;;;;;;4954908;29;20166;-74
2022/01/05 08:06:19;;;;;;;14.23;6.70;;;;;;;;;;4955482;29;20047;-76
2022/01/05 08:08:48;;;;;;;12.45;6.40;;;;;;;;;;4937427;29;20078;-84
2022/01/05 08:11:16;;;;;;;26.23;7.63;;;;;;;;;;4966303;28;20840;-77
2022/01/05 08:13:43;;;;;;;13.00;6.57;;;;;;;;;;4947201;28;20057;-76
2022/01/05 08:16:10;;;;;;;12.45;6.13;;;;;;;;;;4934942;28;20043;-75
2022/01/05 08:18:39;;;;;;;17.90;6.82;;;;;;;;;;4944189;28;20070;-77
2022/01/05 08:21:09;;;;;;;14.57;6.72;;;;;;;;;;4970888;28;20042;-75
2022/01/05 08:23:39;;;;;;;14.23;5.97;;;;;;;;;;4952763;28;20035;-75
2022/01/05 08:26:09;;;;;;;13.60;5.85;;;;;;;;;;4955184;28;20047;-78
2022/01/05 08:28:37;;;;;;;16.10;6.30;;;;;;;;;;4967103;28;20059;-75
2022/01/05 08:31:05;;;;;;;14.63;4.82;;;;;;;;;;4967232;28;20062;-82
2022/01/05 08:33:34;;;;;;;14.55;4.80;;;;;;;;;;4977080;28;20043;-76
2022/01/05 08:36:02;;;;;;;18.70;5.20;;;;;;;;;;4960824;28;20081;-75
2022/01/05 08:38:32;;;;;;;14.07;4.75;;;;;;;;;;4943318;29;20051;-75
2022/01/05 08:40:59;;;;;;;12.98;4.53;;;;;;;;;;4979749;28;20058;-75
2022/01/05 08:43:27;;;;;;;12.50;4.93;;;;;;;;;;4956172;28;20047;-76
2022/01/05 08:45:55;;;;;;;8.23;4.65;;;;;;;;;;4975279;28;20474;-78
2022/01/05 08:48:22;;;;;;;9.40;4.60;;;;;;;;;;4975223;28;20050;-80
2022/01/05 08:50:51;;;;;;;13.27;4.90;;;;;;;;;;4975256;28;20053;-75
2022/01/05 08:53:19;;;;;;;18.67;6.68;;;;;;;;;;4957316;28;20047;-79
2022/01/05 08:55:50;;;;;;;12.15;5.25;;;;;;;;;;4957810;28;20537;-75
2022/01/05 08:58:18;;;;;;;17.90;4.93;;;;;;;;;;4975194;28;20518;-79
2022/01/05 09:00:48;;;;;;;10.18;4.20;;;;;;;;;;4957377;28;20125;-77
2022/01/05 09:03:18;;;;;;;10.60;4.30;;;;;;;;;;4975217;28;20039;-80
2022/01/05 09:05:46;;;;;;;12.32;4.70;;;;;;;;;;4957253;28;20050;-74
2022/01/05 09:08:14;;;;;;;11.05;4.95;;;;;;;;;;4974605;28;20138;-77
2022/01/05 09:10:43;;;;;;;11.63;4.43;;;;;;;;;;4974465;28;20102;-82
2022/01/05 09:13:12;;;;;;;12.80;4.80;;;;;;;;;;4974570;28;20049;-75
2022/01/05 09:15:40;;;;;;;9.75;3.90;;;;;;;;;;4975125;28;20086;-80
2022/01/05 09:18:10;;;;;;;9.48;3.78;;;;;;;;;;4974860;28;20047;-81
2022/01/05 09:20:38;;;;;;;14.40;3.70;;;;;;;;;;4975125;28;20077;-81
2022/01/05 09:23:05;;;;;;;11.55;3.97;;;;;;;;;;4974518;28;20495;-76
2022/01/05 09:25:34;;;;;;;16.77;4.18;;;;;;;;;;4966302;28;20475;-80
2022/01/05 09:28:02;;;;;;;9.55;4.07;;;;;;;;;;4948286;29;20044;-80
2022/01/05 09:30:30;;;;;;;21.02;4.80;;;;;;;;;;4946625;28;20062;-75
2022/01/05 09:32:58;;;;;;;11.85;4.10;;;;;;;;;;4966207;28;20062;-81
2022/01/05 09:35:28;;;;;;;11.35;3.85;;;;;;;;;;4943693;28;20433;-79
2022/01/05 09:43:19;;;;;;;7.60;3.53;;;;;;;;;;4965148;28;20039;-78
2022/01/05 09:46:05;;;;;;;13.43;3.65;;;;;;;;;;4949862;28;20031;-76
2022/01/05 09:49:01;;;;;;;14.18;4.15;;;;;;;;;;4966254;28;20039;-75
2022/01/05 09:51:31;;;;;;;5.35;3.35;;;;;;;;;;4966162;28;20155;-75
2022/01/05 09:54:00;;;;;;;8.38;3.90;;;;;;;;;;4964085;28;20039;-75
2022/01/05 09:56:49;;;;;;;8.65;4.40;;;;;;;;;;4942965;28;20053;-83
2022/01/05 09:59:17;;;;;;;10.38;4.18;;;;;;;;;;4958103;28;20094;-75
2022/01/05 10:01:44;;;;;;;21.63;5.15;;;;;;;;;;4975196;28;20047;-79
2022/01/05 10:04:14;;;;;;;12.38;4.43;;;;;;;;;;4958312;28;20537;-79
2022/01/05 10:06:41;;;;;;;13.30;4.40;;;;;;;;;;4958579;28;20047;-82
2022/01/05 10:09:10;;;;;;;11.50;3.90;;;;;;;;;;4976042;28;20390;-75
2022/01/05 10:11:37;;;;;;;12.93;4.47;;;;;;;;;;4941619;28;20067;-75
2022/01/05 10:14:06;;;;;;;12.15;4.00;;;;;;;;;;4970655;28;20431;-75
2022/01/05 10:16:33;;;;;;;16.77;6.22;;;;;;;;;;4949461;28;20047;-75
2022/01/05 10:19:01;;;;;;;10.95;4.53;;;;;;;;;;4963661;28;20550;-81
2022/01/05 10:21:39;;;;;;;9.85;4.35;;;;;;;;;;4968298;28;20118;-83
2022/01/05 10:24:06;;;;;;;10.77;4.97;;;;;;;;;;4963072;28;20046;-75
2022/01/05 10:26:36;;;;;;;11.77;4.32;;;;;;;;;;4963821;23;20513;-75
2022/01/05 10:29:06;;;;;;;10.63;4.20;;;;;;;;;;4944348;28;20039;-75
2022/01/05 10:31:36;;;;;;;10.07;4.60;;;;;;;;;;4944004;29;20170;-75
2022/01/05 10:34:42;;;;;;;9.20;4.15;;;;;;;;;;4944403;29;20040;-82
2022/01/05 10:37:10;;;;;;;8.52;4.00;;;;;;;;;;4910834;29;20044;-75
2022/01/05 10:39:42;;;;;;;11.68;3.70;;;;;;;;;;4888315;29;20067;-79
2022/01/05 10:42:11;;;;;;;9.75;3.85;;;;;;;;;;4875808;29;20055;-83
2022/01/05 10:44:41;;;;;;;11.43;3.60;;;;;;;;;;4899110;29;20114;-84
2022/01/05 10:47:09;;;;;;;12.25;4.15;;;;;;;;;;4862957;29;20056;-83
2022/01/05 10:49:37;;;;;;;11.68;4.57;;;;;;;;;;4872015;29;20040;-75
2022/01/05 10:52:32;;;;;;;14.98;4.15;;;;;;;;;;4884112;29;20100;-80
2022/01/05 10:55:12;;;;;;;10.90;3.67;;;;;;;;;;4866768;29;20137;-78
2022/01/05 10:58:04;;;;;;;10.27;3.88;;;;;;;;;;4887149;29;20077;-77
2022/01/05 11:00:32;;;;;;;13.10;3.97;;;;;;;;;;4877822;29;20048;-79
2022/01/05 11:03:01;;;;;;;11.13;4.00;;;;;;;;;;4874074;29;20105;-80
2022/01/05 11:05:31;;;;;;;13.88;3.95;;;;;;;;;;4888728;29;20551;-81
2022/01/05 11:08:08;;;;;;;14.13;4.30;;;;;;;;;;4866257;29;20041;-82
2022/01/05 11:10:35;;;;;;;14.02;4.10;;;;;;;;;;4906395;29;20131;-78
2022/01/05 11:13:04;;;;;;;12.75;3.67;;;;;;;;;;4936715;29;20048;-75
2022/01/05 11:15:35;;;;;;;15.02;3.85;;;;;;;;;;4936409;29;20503;-75
2022/01/05 11:18:08;;;;;;;18.83;3.92;;;;;;;;;;4935218;29;20469;-75
2022/01/05 11:20:43;;;;;;;16.35;3.63;;;;;;;;;;4933836;29;20054;-74
2022/01/05 11:23:12;;;;;;;12.65;4.20;;;;;;;;;;4933985;29;20463;-75
2022/01/05 11:25:42;;;;;;;12.70;3.60;;;;;;;;;;4943237;29;20492;-75
2022/01/05 11:28:09;;;;;;;13.63;3.40;;;;;;;;;;4953999;29;20042;-80
2022/01/05 11:30:37;;;;;;;14.57;3.53;;;;;;;;;;4954525;29;20037;-81
2022/01/05 11:33:06;;;;;;;11.40;3.13;;;;;;;;;;4960478;28;20086;-75
2022/01/05 11:35:34;;;;;;;14.70;3.30;;;;;;;;;;4952262;29;20051;-76
2022/01/05 11:38:03;;;;;;;16.52;3.53;;;;;;;;;;4952876;29;20142;-75
2022/01/05 11:40:32;;;;;;;10.40;3.25;;;;;;;;;;4952622;29;20047;-79
2022/01/05 11:43:07;;;;;;;11.80;3.67;;;;;;;;;;4945401;29;20391;-80
2022/01/05 11:45:36;;;;;;;13.07;3.10;;;;;;;;;;4937072;28;20038;-79
2022/01/05 11:48:13;;;;;;;11.85;3.22;;;;;;;;;;4955779;28;20039;-81
2022/01/05 11:50:46;;;;;;;10.93;3.25;;;;;;;;;;4947278;28;20047;-75
2022/01/05 11:53:13;;;;;;;14.57;3.45;;;;;;;;;;4950734;28;20074;-75
2022/01/05 11:55:59;;;;;;;11.63;3.13;;;;;;;;;;4968164;28;20039;-80
2022/01/05 11:58:28;;;;;;;16.65;3.17;;;;;;;;;;4964305;28;20073;-74
2022/01/05 12:01:15;;;;;;;7.35;3.08;;;;;;;;;;4945233;28;20063;-74
2022/01/05 12:03:57;;;;;;;13.85;3.95;;;;;;;;;;4951320;28;20047;-75
2022/01/05 12:06:29;;;;;;;14.80;2.92;;;;;;;;;;4933555;29;20051;-81
2022/01/05 12:08:58;;;;;;;12.88;3.35;;;;;;;;;;4956554;29;20153;-80
2022/01/05 12:11:34;;;;;;;12.60;3.55;;;;;;;;;;4925218;29;20131;-76
2022/01/05 12:14:03;;;;;;;8.80;3.45;;;;;;;;;;4941454;29;20123;-80
2022/01/05 12:16:50;;;;;;;11.45;3.67;;;;;;;;;;4965616;28;20054;-75
2022/01/05 12:19:20;;;;;;;10.07;2.95;;;;;;;;;;4954199;28;20043;-79
2022/01/05 12:21:49;;;;;;;14.65;3.55;;;;;;;;;;4960389;28;20431;-80
2022/01/05 12:24:18;;;;;;;11.43;3.40;;;;;;;;;;4958277;28;20047;-75
2022/01/05 12:27:06;;;;;;;8.40;3.65;;;;;;;;;;4972709;28;20142;-80
2022/01/05 12:29:35;;;;;;;12.48;3.33;;;;;;;;;;4951244;29;20036;-79
2022/01/05 12:32:08;;;;;;;13.03;3.57;;;;;;;;;;4938013;29;20049;-75
2022/01/05 12:34:56;;;;;;;13.48;3.00;;;;;;;;;;4932570;29;20615;-81
2022/01/05 12:37:41;;;;;;;9.63;3.20;;;;;;;;;;4950252;29;20098;-78
2022/01/05 12:40:27;;;;;;;8.10;2.92;;;;;;;;;;4951712;29;20046;-75
2022/01/05 12:43:11;;;;;;;14.77;3.83;;;;;;;;;;4953227;29;20465;-80
2022/01/05 12:45:57;;;;;;;13.52;3.65;;;;;;;;;;4954628;29;20047;-80
2022/01/05 12:51:18;;;;;;;14.35;3.38;;;;;;;;;;4953657;29;20069;-80
2022/01/05 12:53:52;;;;;;;9.13;3.38;;;;;;;;;;4952299;29;20094;-80
2022/01/05 12:56:25;;;;;;;12.27;3.05;;;;;;;;;;4936585;29;20119;-79
2022/01/05 12:58:53;;;;;;;16.52;3.70;;;;;;;;;;4935555;29;20070;-79
2022/01/05 13:01:25;;;;;;;11.25;3.15;;;;;;;;;;4936614;29;20059;-78
2022/01/05 13:03:57;;;;;;;11.18;3.67;;;;;;;;;;4936454;29;20474;-79
2022/01/05 13:06:27;;;;;;;14.77;4.40;;;;;;;;;;4949580;29;20040;-79
2022/01/05 13:08:58;;;;;;;11.88;3.30;;;;;;;;;;4933003;29;20036;-75
2022/01/05 13:11:42;;;;;;;10.30;3.70;;;;;;;;;;4928134;29;20039;-79
2022/01/05 13:14:22;;;;;;;12.15;3.70;;;;;;;;;;4945546;29;20180;-79
2022/01/05 13:16:53;;;;;;;7.40;3.28;;;;;;;;;;4951390;29;20035;-79
2022/01/05 13:19:33;;;;;;;15.70;3.33;;;;;;;;;;4950502;29;20043;-79
2022/01/05 13:22:11;;;;;;;11.98;3.80;;;;;;;;;;4948981;28;20386;-74
2022/01/05 13:24:42;;;;;;;10.38;3.33;;;;;;;;;;4948654;28;20134;-76
2022/01/05 13:27:12;;;;;;;14.68;3.65;;;;;;;;;;4932694;28;20127;-79
2022/01/05 13:29:42;;;;;;;14.98;4.13;;;;;;;;;;4962492;28;20130;-76
2022/01/05 13:32:10;;;;;;;11.02;3.22;;;;;;;;;;4963114;28;20153;-75
2022/01/05 13:34:40;;;;;;;12.10;3.40;;;;;;;;;;4963342;28;20046;-73
2022/01/05 13:37:09;;;;;;;12.77;3.65;;;;;;;;;;4951138;28;20034;-73
2022/01/05 13:39:41;;;;;;;8.98;3.30;;;;;;;;;;4955309;28;20038;-73
2022/01/05 13:42:08;;;;;;;;;;;;;;;;;;4962844;28;20181;-77
2022/01/05 13:44:37;;;;;;;9.82;3.40;;;;;;;;;;4969576;28;19922;-75
2022/01/05 13:47:07;;;;;;;8.70;2.80;;;;;;;;;;4965735;28;20065;-74
2022/01/05 13:49:35;;;;;;;6.55;3.17;;;;;;;;;;4953777;28;20050;-74
2022/01/05 13:52:10;;;;;;;8.65;3.20;;;;;;;;;;4968653;28;20098;-74
2022/01/05 13:54:40;;;;;;;16.10;3.85;;;;;;;;;;4962298;28;20047;-79
2022/01/05 13:57:08;;;;;;;10.75;3.65;;;;;;;;;;4958391;28;20053;-78
2022/01/05 13:59:44;;;;;;;11.95;3.50;;;;;;;;;;4956397;28;20036;-79
2022/01/05 14:02:12;;;;;;;14.45;3.78;;;;;;;;;;4969875;28;20051;-79
2022/01/05 14:04:49;;;;;;;14.52;3.97;;;;;;;;;;4956292;29;20039;-79
2022/01/05 14:07:18;;;;;;;6.95;3.00;;;;;;;;;;4955347;29;20081;-78
2022/01/05 14:09:46;;;;;;;15.77;3.65;;;;;;;;;;4941894;28;20054;-78
2022/01/05 14:12:33;;;;;;;14.68;3.60;;;;;;;;;;4975076;28;20481;-74
2022/01/05 14:15:02;;;;;;;10.23;3.50;;;;;;;;;;4968536;28;20118;-74
2022/01/05 14:17:29;;;;;;;12.35;3.70;;;;;;;;;;4936515;29;20051;-75
2022/01/05 14:20:15;;;;;;;13.18;3.70;;;;;;;;;;4947953;28;20050;-78
2022/01/05 14:22:43;;;;;;;11.65;3.50;;;;;;;;;;4953488;29;20051;-77
2022/01/05 14:25:12;;;;;;;9.77;3.50;;;;;;;;;;4953780;29;20066;-80
2022/01/05 14:27:44;;;;;;;8.68;3.42;;;;;;;;;;4951192;29;20058;-76
2022/01/05 14:30:12;;;;;;;11.18;3.85;;;;;;;;;;4954369;28;20047;-76
2022/01/05 14:32:40;;;;;;;9.18;3.35;;;;;;;;;;4953661;28;20038;-75
2022/01/05 14:35:16;;;;;;;10.73;3.38;;;;;;;;;;4967240;28;20126;-76
2022/01/05 14:37:58;;;;;;;14.73;3.78;;;;;;;;;;4953608;29;20047;-78
2022/01/05 14:40:29;;;;;;;13.77;3.93;;;;;;;;;;4955418;28;20142;-78
2022/01/05 14:43:02;;;;;;;13.18;3.67;;;;;;;;;;4955535;28;20509;-79
2022/01/05 14:45:36;;;;;;;13.85;3.63;;;;;;;;;;4956098;28;20047;-75
2022/01/05 14:48:04;;;;;;;17.38;3.25;;;;;;;;;;4961420;28;20079;-75
2022/01/05 14:50:32;;;;;;;13.50;3.60;;;;;;;;;;4938300;28;20035;-75
2022/01/05 14:53:03;;;;;;;13.60;3.55;;;;;;;;;;4954853;28;20039;-77
2022/01/05 14:55:31;;;;;;;10.68;3.25;;;;;;;;;;4958520;28;20439;-74
2022/01/05 14:57:59;;;;;;;13.48;3.50;;;;;;;;;;4951039;28;20040;-78
2022/01/05 15:00:27;;;;;;;10.20;3.17;;;;;;;;;;4961836;28;20047;-78
2022/01/05 15:02:55;;;;;;;14.70;3.25;;;;;;;;;;4954429;28;20684;-78
2022/01/05 15:05:23;;;;;;;15.82;3.15;;;;;;;;;;4937810;28;20134;-78
2022/01/05 15:07:51;;;;;;;13.95;3.28;;;;;;;;;;4946599;28;20043;-75
2022/01/05 15:10:18;;;;;;;20.52;3.83;;;;;;;;;;4946013;28;20410;-79